createdAt,value
2023-09-30T00:01:30.167Z,2.42
2023-09-30T00:03:57.887Z,2.50
2023-09-30T00:06:26.754Z,2.90
2023-09-30T00:08:54.911Z,2.55
2023-09-30T00:13:50.346Z,2.08
2023-09-30T00:16:18.921Z,2.53
2023-09-30T00:18:46.284Z,2.38
2023-09-30T00:21:13.592Z,2.05
2023-09-30T00:23:42.420Z,2.70
2023-09-30T00:26:09.704Z,2.65
2023-09-30T00:28:36.852Z,2.22
2023-09-30T00:31:10.478Z,2.78
2023-09-30T00:33:38.926Z,2.80
2023-09-30T00:36:10.760Z,2.72
2023-09-30T00:38:38.397Z,2.67
2023-09-30T00:41:08.147Z,2.58
2023-09-30T00:43:35.315Z,2.45
2023-09-30T00:46:13.029Z,2.78
2023-09-30T00:48:40.688Z,2.45
2023-09-30T00:51:07.813Z,2.47
2023-09-30T00:53:34.957Z,2.40
2023-09-30T00:56:02.182Z,3.55
2023-09-30T00:58:33.892Z,2.88
2023-09-30T01:01:01.038Z,2.45
2023-09-30T01:03:28.361Z,2.38
2023-09-30T01:05:55.594Z,3.30
2023-09-30T01:08:22.894Z,2.53
2023-09-30T01:13:17.821Z,3.05
2023-09-30T01:15:48.306Z,3.03
2023-09-30T01:18:15.532Z,2.45
2023-09-30T01:20:43.052Z,2.80
2023-09-30T01:23:13.000Z,2.70
2023-09-30T01:25:40.594Z,2.38
2023-09-30T01:28:09.685Z,2.70
2023-09-30T01:30:36.895Z,3.03
2023-09-30T01:33:04.459Z,3.05
2023-09-30T01:35:31.519Z,2.47
2023-09-30T01:38:01.727Z,2.83
2023-09-30T01:40:31.183Z,2.33
2023-09-30T01:42:58.238Z,2.20
2023-09-30T01:45:25.319Z,2.22
2023-09-30T01:47:52.624Z,2.90
2023-09-30T01:50:21.219Z,2.92
2023-09-30T01:55:15.395Z,2.33
2023-09-30T01:57:44.206Z,2.28
2023-09-30T02:00:13.695Z,2.33
2023-09-30T02:02:43.325Z,3.05
2023-09-30T02:05:10.851Z,3.03
2023-09-30T02:07:38.297Z,2.15
2023-09-30T02:10:06.184Z,2.65
2023-09-30T02:12:33.445Z,1.88
2023-09-30T02:15:04.488Z,3.03
2023-09-30T02:17:31.784Z,2.50
2023-09-30T02:19:59.064Z,2.55
2023-09-30T02:22:29.238Z,2.13
2023-09-30T02:24:56.971Z,2.58
2023-09-30T02:27:24.092Z,2.58
2023-09-30T02:29:53.712Z,2.70
2023-09-30T02:32:22.968Z,3.53
2023-09-30T02:34:51.596Z,2.67
2023-09-30T02:37:19.418Z,2.33
2023-09-30T02:39:46.687Z,2.55
2023-09-30T02:42:16.706Z,2.45
2023-09-30T02:44:43.897Z,2.67
2023-09-30T02:47:11.899Z,2.80
2023-09-30T02:49:40.466Z,2.28
2023-09-30T02:52:07.557Z,2.17
2023-09-30T02:54:34.640Z,2.83
2023-09-30T02:57:01.890Z,2.55
2023-09-30T02:59:31.904Z,2.60
2023-09-30T03:01:59.084Z,2.63
2023-09-30T03:04:29.783Z,2.50
2023-09-30T03:06:58.986Z,2.65
2023-09-30T03:09:26.163Z,2.45
2023-09-30T03:12:00.515Z,2.83
2023-09-30T03:14:27.732Z,2.20
2023-09-30T03:16:54.767Z,2.40
2023-09-30T03:19:22.561Z,2.72
2023-09-30T03:21:49.604Z,2.42
2023-09-30T03:24:18.103Z,2.58
2023-09-30T03:26:45.260Z,2.35
2023-09-30T03:29:12.406Z,2.17
2023-09-30T03:31:39.587Z,2.17
2023-09-30T03:34:09.874Z,2.33
2023-09-30T03:36:38.154Z,2.17
2023-09-30T03:39:09.684Z,2.70
2023-09-30T03:41:38.478Z,2.67
2023-09-30T03:44:05.579Z,2.60
2023-09-30T03:46:32.712Z,2.78
2023-09-30T03:49:00.486Z,2.70
2023-09-30T03:51:27.730Z,2.65
2023-09-30T03:53:54.810Z,2.50
2023-09-30T03:56:23.773Z,3.65
2023-09-30T03:58:53.873Z,2.40
2023-09-30T04:01:21.468Z,3.00
2023-09-30T04:03:48.728Z,3.78
2023-09-30T04:06:15.989Z,3.78
2023-09-30T04:08:46.179Z,3.08
2023-09-30T04:11:18.988Z,3.40
2023-09-30T04:13:46.588Z,2.97
2023-09-30T04:16:15.050Z,2.60
2023-09-30T04:18:42.687Z,3.13
2023-09-30T04:21:09.827Z,2.38
2023-09-30T04:23:37.848Z,3.30
2023-09-30T04:26:06.399Z,3.35
2023-09-30T04:28:35.369Z,4.00
2023-09-30T04:31:04.332Z,4.15
2023-09-30T04:33:33.407Z,3.45
2023-09-30T04:36:00.498Z,3.75
2023-09-30T04:38:27.584Z,3.17
2023-09-30T04:40:55.639Z,4.13
2023-09-30T04:43:22.718Z,3.10
2023-09-30T04:45:53.810Z,2.67
2023-09-30T04:48:21.393Z,2.53
2023-09-30T04:50:50.317Z,2.65
2023-09-30T04:53:18.739Z,2.40
2023-09-30T04:55:45.953Z,2.30
2023-09-30T04:58:13.998Z,3.35
2023-09-30T05:03:08.483Z,2.65
2023-09-30T05:05:36.433Z,2.97
2023-09-30T05:08:05.422Z,3.35
2023-09-30T05:10:32.674Z,3.58
2023-09-30T05:12:59.816Z,2.78
2023-09-30T05:15:27.034Z,3.10
2023-09-30T05:17:54.201Z,2.35
2023-09-30T05:20:21.750Z,2.67
2023-09-30T05:22:49.999Z,2.95
2023-09-30T05:25:19.339Z,3.53
2023-09-30T05:27:49.234Z,3.17
2023-09-30T05:30:17.299Z,2.33
2023-09-30T05:32:44.627Z,3.03
2023-09-30T05:35:14.844Z,2.28
2023-09-30T05:37:42.560Z,2.83
2023-09-30T05:40:23.650Z,2.47
2023-09-30T05:42:53.425Z,3.03
2023-09-30T05:45:21.155Z,3.30
2023-09-30T05:47:51.786Z,1.98
2023-09-30T05:50:25.054Z,3.28
2023-09-30T05:52:52.392Z,2.28
2023-09-30T05:55:23.318Z,2.85
2023-09-30T05:57:53.470Z,2.08
2023-09-30T06:00:24.564Z,3.22
2023-09-30T06:02:52.959Z,3.45
2023-09-30T06:05:20.505Z,3.63
2023-09-30T06:07:47.711Z,3.08
2023-09-30T06:10:19.893Z,3.25
2023-09-30T06:12:47.809Z,3.38
2023-09-30T06:15:17.049Z,3.53
2023-09-30T06:17:45.153Z,2.95
2023-09-30T06:22:46.526Z,3.17
2023-09-30T06:25:16.296Z,2.75
2023-09-30T06:27:43.803Z,2.35
2023-09-30T06:30:12.092Z,2.33
2023-09-30T06:32:41.706Z,3.40
2023-09-30T06:35:11.570Z,4.10
2023-09-30T06:37:39.058Z,2.53
2023-09-30T06:40:10.701Z,3.47
2023-09-30T06:42:44.080Z,3.05
2023-09-30T06:45:11.781Z,3.55
2023-09-30T06:47:42.623Z,3.13
2023-09-30T06:50:12.311Z,3.38
2023-09-30T06:52:40.189Z,3.25
2023-09-30T06:55:09.517Z,2.63
2023-09-30T06:57:38.073Z,2.45
2023-09-30T07:00:09.859Z,3.85
2023-09-30T07:02:37.602Z,2.63
2023-09-30T07:05:09.324Z,2.25
2023-09-30T07:07:36.641Z,2.20
2023-09-30T07:10:05.328Z,2.15
2023-09-30T07:12:37.394Z,3.60
2023-09-30T07:15:06.712Z,2.88
2023-09-30T07:17:35.835Z,3.17
2023-09-30T07:20:10.975Z,2.95
2023-09-30T07:22:50.390Z,2.75
2023-09-30T07:25:33.154Z,2.78
2023-09-30T07:28:42.629Z,2.33
2023-09-30T07:31:45.597Z,3.00
2023-09-30T07:42:09.727Z,3.17
2023-09-30T07:44:39.829Z,2.78
2023-09-30T07:47:13.563Z,2.65
2023-09-30T07:49:42.165Z,2.75
2023-09-30T07:52:09.685Z,2.17
2023-09-30T07:57:04.064Z,2.05
2023-09-30T07:59:34.577Z,2.67
2023-09-30T08:02:02.853Z,2.60
2023-09-30T08:04:31.103Z,2.83
2023-09-30T08:06:58.806Z,3.00
2023-09-30T08:11:54.883Z,2.42
2023-09-30T08:14:22.113Z,3.15
2023-09-30T08:16:50.843Z,3.38
2023-09-30T08:19:18.134Z,3.80
2023-09-30T08:21:46.449Z,3.85
2023-09-30T08:24:13.551Z,3.47
2023-09-30T08:26:40.679Z,3.50
2023-09-30T08:29:07.684Z,4.28
2023-09-30T08:31:35.127Z,3.95
2023-09-30T08:34:05.191Z,4.40
2023-09-30T08:36:32.519Z,4.10
2023-09-30T08:38:59.952Z,4.40
2023-09-30T08:41:33.245Z,4.47
2023-09-30T08:44:01.966Z,4.03
2023-09-30T08:46:32.079Z,3.60
2023-09-30T08:49:00.196Z,3.80
2023-09-30T08:51:30.202Z,3.90
2023-09-30T08:53:57.908Z,4.63
2023-09-30T08:56:26.423Z,4.00
2023-09-30T08:58:58.218Z,4.43
2023-09-30T09:01:26.117Z,4.45
2023-09-30T09:03:54.067Z,4.07
2023-09-30T09:06:22.372Z,4.03
2023-09-30T09:08:51.526Z,4.47
2023-09-30T09:11:19.220Z,4.22
2023-09-30T09:13:57.132Z,4.45
2023-09-30T09:16:27.080Z,3.65
2023-09-30T09:18:54.556Z,3.70
2023-09-30T09:21:27.581Z,4.25
2023-09-30T09:23:57.451Z,3.90
2023-09-30T09:26:26.548Z,4.18
2023-09-30T09:28:57.968Z,3.85
2023-09-30T09:31:27.067Z,4.28
2023-09-30T09:33:54.558Z,3.53
2023-09-30T09:36:22.057Z,3.42
2023-09-30T09:38:51.148Z,3.25
2023-09-30T09:41:19.759Z,3.88
2023-09-30T09:43:50.798Z,3.70
2023-09-30T09:46:18.735Z,3.47
2023-09-30T09:48:48.688Z,3.92
2023-09-30T09:51:18.736Z,3.58
2023-09-30T09:53:46.123Z,2.67
2023-09-30T09:56:13.810Z,3.15
2023-09-30T09:58:43.843Z,3.03
2023-09-30T10:01:11.669Z,3.20
2023-09-30T10:03:39.736Z,3.38
2023-09-30T10:06:07.445Z,2.90
2023-09-30T10:08:38.201Z,2.97
2023-09-30T10:11:05.470Z,3.03
2023-09-30T10:13:53.870Z,2.40
2023-09-30T10:16:49.615Z,3.20
2023-09-30T10:19:19.210Z,2.72
2023-09-30T10:22:23.771Z,2.90
2023-09-30T10:24:51.696Z,3.03
2023-09-30T10:27:36.204Z,4.22
2023-09-30T10:30:14.694Z,2.88
2023-09-30T10:33:11.174Z,2.95
2023-09-30T10:35:47.523Z,3.17
2023-09-30T10:38:41.569Z,3.15
2023-09-30T10:41:09.770Z,2.55
2023-09-30T10:43:39.116Z,2.22
2023-09-30T10:46:38.143Z,1.60
2023-09-30T10:49:37.007Z,2.83
2023-09-30T10:52:04.214Z,2.10
2023-09-30T10:54:32.513Z,1.90
2023-09-30T10:57:00.815Z,2.10
2023-09-30T10:59:28.964Z,4.03
2023-09-30T11:01:58.293Z,3.40
2023-09-30T11:04:27.604Z,2.28
2023-09-30T11:06:55.037Z,4.25
2023-09-30T11:11:51.112Z,3.42
2023-09-30T11:14:19.303Z,1.88
2023-09-30T11:16:46.559Z,2.10
2023-09-30T11:19:16.177Z,1.67
2023-09-30T11:21:45.195Z,2.00
2023-09-30T11:24:13.019Z,1.80
2023-09-30T11:26:42.380Z,1.73
2023-09-30T11:29:12.517Z,1.67
2023-09-30T11:31:40.107Z,1.75
2023-09-30T11:34:08.647Z,2.38
2023-09-30T11:36:39.317Z,1.80
2023-09-30T11:39:06.858Z,1.63
2023-09-30T11:41:35.032Z,2.33
2023-09-30T11:44:10.777Z,2.25
2023-09-30T11:46:50.495Z,2.25
2023-09-30T11:49:31.165Z,2.38
2023-09-30T11:52:01.105Z,1.88
2023-09-30T11:54:33.490Z,2.60
2023-09-30T11:57:01.743Z,6.80
2023-09-30T11:59:28.799Z,2.63
2023-09-30T12:02:10.708Z,3.33
2023-09-30T12:04:41.330Z,1.67
2023-09-30T12:07:09.937Z,2.63
2023-09-30T12:09:38.771Z,2.40
2023-09-30T12:12:11.710Z,2.30
2023-09-30T12:17:06.610Z,2.35
2023-09-30T12:22:00.760Z,2.97
2023-09-30T12:24:29.440Z,2.83
2023-09-30T12:26:56.514Z,2.72
2023-09-30T12:31:54.189Z,4.20
2023-09-30T12:34:25.042Z,3.20
2023-09-30T12:36:52.847Z,2.22
2023-09-30T12:39:25.401Z,2.15
2023-09-30T12:41:57.532Z,2.53
2023-09-30T12:44:24.736Z,3.33
2023-09-30T12:49:19.920Z,2.70
2023-09-30T12:51:47.778Z,2.63
2023-09-30T12:54:16.105Z,3.17
2023-09-30T12:56:43.714Z,2.92
2023-09-30T12:59:12.201Z,2.55
2023-09-30T13:01:40.306Z,2.38
2023-09-30T13:04:09.707Z,3.58
2023-09-30T13:06:37.705Z,3.30
2023-09-30T13:09:09.914Z,2.40
2023-09-30T13:11:37.688Z,2.30
2023-09-30T13:14:05.422Z,2.60
2023-09-30T13:16:34.849Z,2.15
2023-09-30T13:19:03.254Z,2.53
2023-09-30T13:21:31.329Z,2.50
2023-09-30T13:23:58.442Z,2.75
2023-09-30T13:28:53.786Z,2.20
2023-09-30T13:31:20.927Z,2.65
2023-09-30T13:33:49.490Z,2.45
2023-09-30T13:36:16.690Z,2.50
2023-09-30T13:41:10.571Z,2.20
2023-09-30T13:46:05.257Z,3.60
2023-09-30T13:48:32.525Z,3.00
2023-09-30T13:51:06.786Z,3.40
2023-09-30T13:53:33.940Z,4.18
2023-09-30T13:56:01.089Z,3.13
2023-09-30T14:00:55.146Z,2.10
2023-09-30T14:05:49.373Z,2.60
2023-09-30T14:08:17.921Z,2.28
2023-09-30T14:10:45.489Z,2.90
2023-09-30T14:13:12.685Z,2.60
2023-09-30T14:15:39.817Z,2.92
2023-09-30T14:20:37.507Z,2.90
2023-09-30T14:23:04.902Z,3.15
2023-09-30T14:25:33.761Z,3.10
2023-09-30T14:28:01.466Z,3.42
2023-09-30T14:30:28.825Z,3.75
2023-09-30T14:32:55.933Z,3.25
2023-09-30T14:35:23.176Z,3.15
2023-09-30T14:37:50.271Z,2.90
2023-09-30T14:40:17.416Z,2.33
2023-09-30T14:42:46.010Z,3.05
2023-09-30T14:45:13.148Z,4.65
2023-09-30T14:47:42.217Z,3.05
2023-09-30T14:50:11.616Z,3.47
2023-09-30T14:52:38.698Z,2.97
2023-09-30T14:55:06.517Z,3.15
2023-09-30T14:57:33.634Z,2.70
2023-09-30T15:00:02.092Z,2.60
2023-09-30T15:02:29.221Z,2.40
2023-09-30T15:04:56.434Z,2.05
2023-09-30T15:09:52.241Z,2.47
2023-09-30T15:12:19.417Z,2.63
2023-09-30T15:14:46.560Z,2.33
2023-09-30T15:17:14.989Z,2.50
2023-09-30T15:19:42.053Z,2.63
2023-09-30T15:22:09.281Z,2.33
2023-09-30T15:24:36.496Z,2.50
2023-09-30T15:27:03.823Z,2.38
2023-09-30T15:29:30.849Z,2.08
2023-09-30T15:31:58.045Z,2.05
2023-09-30T15:34:26.445Z,2.38
2023-09-30T15:36:53.490Z,2.00
2023-09-30T15:39:20.751Z,2.35
2023-09-30T15:41:48.191Z,2.58
2023-09-30T15:44:15.192Z,2.63
2023-09-30T15:46:42.311Z,2.53
2023-09-30T15:49:09.550Z,3.05
2023-09-30T15:51:38.085Z,3.40
2023-09-30T15:54:06.177Z,2.90
2023-09-30T15:56:42.155Z,4.32
2023-09-30T15:59:20.925Z,3.63
2023-09-30T16:01:48.082Z,3.10
2023-09-30T16:04:15.238Z,3.35
2023-09-30T16:06:43.779Z,3.95
2023-09-30T16:09:10.962Z,3.25
2023-09-30T16:11:38.112Z,3.38
2023-09-30T16:14:05.385Z,2.97
2023-09-30T16:16:32.580Z,3.05
2023-09-30T16:18:59.807Z,2.53
2023-09-30T16:21:29.263Z,2.90
2023-09-30T16:23:58.113Z,2.85
2023-09-30T16:26:25.319Z,2.75
2023-09-30T16:28:52.427Z,2.38
2023-09-30T16:31:19.635Z,2.65
2023-09-30T16:33:46.849Z,3.25
2023-09-30T16:36:13.828Z,2.80
2023-09-30T16:38:40.811Z,2.55
2023-09-30T16:41:09.299Z,2.75
2023-09-30T16:43:36.365Z,2.80
2023-09-30T16:46:03.721Z,2.67
2023-09-30T16:48:30.870Z,2.80
2023-09-30T16:50:58.040Z,2.35
2023-09-30T16:53:26.042Z,2.63
2023-09-30T16:55:53.305Z,2.80
2023-09-30T16:58:21.708Z,2.65
2023-09-30T17:00:48.981Z,2.72
2023-09-30T17:03:16.268Z,2.53
2023-09-30T17:05:44.163Z,3.35
2023-09-30T17:10:41.914Z,2.72
2023-09-30T17:13:09.070Z,2.92
2023-09-30T17:15:42.057Z,2.35
2023-09-30T17:18:09.519Z,3.10
2023-09-30T17:20:36.652Z,2.28
2023-09-30T17:23:04.065Z,2.90
2023-09-30T17:25:32.356Z,2.83
2023-09-30T17:27:59.484Z,2.20
2023-09-30T17:30:40.150Z,2.67
2023-09-30T17:33:10.878Z,2.75
2023-09-30T17:35:39.783Z,2.60
2023-09-30T17:38:06.977Z,2.17
2023-09-30T17:40:34.160Z,2.20
2023-09-30T17:43:01.249Z,2.60
2023-09-30T17:45:28.526Z,2.78
2023-09-30T17:47:55.697Z,2.72
2023-09-30T17:50:25.633Z,2.80
2023-09-30T17:52:52.937Z,2.53
2023-09-30T17:55:21.547Z,2.03
2023-09-30T17:57:48.744Z,2.70
2023-09-30T18:00:16.784Z,2.60
2023-09-30T18:02:43.933Z,3.03
2023-09-30T18:05:11.215Z,2.08
2023-09-30T18:07:39.711Z,2.30
2023-09-30T18:10:08.039Z,2.65
2023-09-30T18:12:35.412Z,2.90
2023-09-30T18:15:02.447Z,2.05
2023-09-30T18:17:29.773Z,2.42
2023-09-30T18:19:56.909Z,2.08
2023-09-30T18:22:24.521Z,2.47
2023-09-30T18:24:53.027Z,2.63
2023-09-30T18:27:20.406Z,2.85
2023-09-30T18:29:47.521Z,2.10
2023-09-30T18:32:14.662Z,2.35
2023-09-30T18:34:41.811Z,2.08
2023-09-30T18:37:09.045Z,2.20
2023-09-30T18:39:36.171Z,2.28
2023-09-30T18:42:05.230Z,2.13
2023-09-30T18:44:32.253Z,2.05
2023-09-30T18:46:59.259Z,2.33
2023-09-30T18:49:45.878Z,2.17
2023-09-30T18:52:13.059Z,2.05
2023-09-30T18:54:40.204Z,2.33
2023-09-30T18:57:08.781Z,2.15
2023-09-30T18:59:35.827Z,2.20
2023-09-30T19:02:04.789Z,2.40
2023-09-30T19:04:33.050Z,2.47
2023-09-30T19:07:01.139Z,2.65
2023-09-30T19:11:55.088Z,1.92
2023-09-30T19:14:24.843Z,2.13
2023-09-30T19:16:55.035Z,2.28
2023-09-30T19:19:22.215Z,2.03
2023-09-30T19:21:49.353Z,1.92
2023-09-30T19:24:16.461Z,1.95
2023-09-30T19:26:43.614Z,2.17
2023-09-30T19:29:10.871Z,1.95
2023-09-30T19:31:39.439Z,1.88
2023-09-30T19:34:06.594Z,2.20
2023-09-30T19:36:33.703Z,1.75
2023-09-30T19:39:00.893Z,2.25
2023-09-30T19:41:27.856Z,2.00
2023-09-30T19:43:57.659Z,1.73
2023-09-30T19:46:25.421Z,2.05
2023-09-30T19:48:55.901Z,1.88
2023-09-30T19:51:26.068Z,2.28
2023-09-30T19:53:53.390Z,2.20
2023-09-30T19:56:20.420Z,2.58
2023-09-30T19:58:47.576Z,2.10
2023-09-30T20:01:14.702Z,1.52
2023-09-30T20:03:44.052Z,1.88
2023-09-30T20:06:20.766Z,1.95
2023-09-30T20:08:48.993Z,1.85
2023-09-30T20:13:47.332Z,1.95
2023-09-30T20:16:17.607Z,1.88
2023-09-30T20:18:45.431Z,2.53
2023-09-30T20:21:14.222Z,1.83
2023-09-30T20:23:43.148Z,2.08
2023-09-30T20:26:19.736Z,1.65
2023-09-30T20:28:47.035Z,1.80
2023-09-30T20:31:14.628Z,2.28
2023-09-30T20:33:41.915Z,2.72
2023-09-30T20:36:09.037Z,2.05
2023-09-30T20:38:36.412Z,2.20
2023-09-30T20:41:08.524Z,2.92
2023-09-30T20:43:35.721Z,2.80
2023-09-30T20:46:04.006Z,2.38
2023-09-30T20:48:31.270Z,2.42
2023-09-30T20:50:58.371Z,2.03
2023-09-30T20:53:27.253Z,1.95
2023-09-30T20:55:54.307Z,2.70
2023-09-30T20:58:22.802Z,2.22
2023-09-30T21:00:49.975Z,1.73
2023-09-30T21:03:17.863Z,2.15
2023-09-30T21:05:45.735Z,2.00
2023-09-30T21:08:18.048Z,2.30
2023-09-30T21:10:45.322Z,1.65
2023-09-30T21:13:12.400Z,2.20
2023-09-30T21:15:41.014Z,2.45
2023-09-30T21:18:08.222Z,1.98
2023-09-30T21:20:35.434Z,2.22
2023-09-30T21:23:02.576Z,2.30
2023-09-30T21:25:29.609Z,1.92
2023-09-30T21:27:57.072Z,2.58
2023-09-30T21:30:24.489Z,1.90
2023-09-30T21:32:52.881Z,2.00
2023-09-30T21:35:20.145Z,2.78
2023-09-30T21:37:48.607Z,2.72
2023-09-30T21:40:16.080Z,3.22
2023-09-30T21:42:43.420Z,1.80
2023-09-30T21:45:11.617Z,3.10
2023-09-30T21:47:38.820Z,2.35
2023-09-30T21:50:08.126Z,1.65
2023-09-30T21:52:35.166Z,2.50
2023-09-30T21:55:02.514Z,2.00
2023-09-30T21:57:29.560Z,2.53
2023-09-30T21:59:56.622Z,2.13
2023-09-30T22:02:24.028Z,2.00
2023-09-30T22:04:51.377Z,1.65
2023-09-30T22:07:23.389Z,1.90
2023-09-30T22:09:50.530Z,1.63
2023-09-30T22:12:17.644Z,1.52
2023-09-30T22:14:44.939Z,1.88
2023-09-30T22:17:11.953Z,2.20
2023-09-30T22:19:39.213Z,1.52
2023-09-30T22:22:12.804Z,1.80
2023-09-30T22:24:41.682Z,1.88
2023-09-30T22:27:08.820Z,1.85
2023-09-30T22:29:36.136Z,1.77
2023-09-30T22:32:03.293Z,2.28
2023-09-30T22:34:30.432Z,2.20
2023-09-30T22:36:57.703Z,1.58
2023-09-30T22:39:24.851Z,2.53
2023-09-30T22:41:53.590Z,2.80
2023-09-30T22:44:20.891Z,1.58
2023-09-30T22:46:48.225Z,2.15
2023-09-30T22:49:15.633Z,2.38
2023-09-30T22:51:43.119Z,2.30
2023-09-30T22:54:11.243Z,1.85
2023-09-30T22:59:08.784Z,1.25
2023-09-30T23:01:37.552Z,2.03
2023-09-30T23:04:05.375Z,2.50
2023-09-30T23:06:34.134Z,2.30
2023-09-30T23:09:01.348Z,2.20
2023-09-30T23:11:29.056Z,1.95
2023-09-30T23:13:56.557Z,2.35
2023-09-30T23:16:25.395Z,2.13
2023-09-30T23:18:52.805Z,2.63
2023-09-30T23:21:20.128Z,1.83
2023-09-30T23:23:47.209Z,2.70
2023-09-30T23:26:14.565Z,1.92
2023-09-30T23:28:41.864Z,2.60
2023-09-30T23:31:09.357Z,1.92
2023-09-30T23:33:39.720Z,1.65
2023-09-30T23:36:07.492Z,2.38
2023-09-30T23:38:34.536Z,2.33
2023-09-30T23:41:04.280Z,1.75
2023-09-30T23:43:33.012Z,2.70
2023-09-30T23:46:00.236Z,1.75
2023-09-30T23:48:27.661Z,1.55
2023-09-30T23:50:57.007Z,2.03
2023-09-30T23:53:25.172Z,2.15
2023-09-30T23:55:52.131Z,1.80
2023-09-30T23:58:19.424Z,1.98
